createdAt,value
2022-12-29T00:01:02.391Z,0.80
2022-12-29T00:03:32.031Z,0.90
2022-12-29T00:06:00.313Z,0.70
2022-12-29T00:08:40.795Z,0.70
2022-12-29T00:11:09.626Z,0.80
2022-12-29T00:13:54.969Z,0.63
2022-12-29T00:16:23.072Z,0.70
2022-12-29T00:18:52.521Z,0.70
2022-12-29T00:21:39.078Z,0.63
2022-12-29T00:24:25.465Z,1.00
2022-12-29T00:27:14.524Z,0.80
2022-12-29T00:30:00.185Z,0.70
2022-12-29T00:32:45.573Z,0.47
2022-12-29T00:35:15.726Z,0.63
2022-12-29T00:38:02.310Z,0.63
2022-12-29T00:40:47.652Z,0.77
2022-12-29T00:43:36.988Z,0.70
2022-12-29T00:46:05.203Z,0.73
2022-12-29T00:48:55.325Z,0.53
2022-12-29T00:51:24.747Z,1.00
2022-12-29T00:53:52.772Z,0.80
2022-12-29T00:56:20.823Z,0.80
2022-12-29T00:58:49.783Z,0.60
2022-12-29T01:01:18.000Z,0.70
2022-12-29T01:03:46.238Z,0.70
2022-12-29T01:06:14.368Z,0.80
2022-12-29T01:08:43.801Z,0.80
2022-12-29T01:11:11.570Z,0.87
2022-12-29T01:13:39.916Z,0.63
2022-12-29T01:16:08.352Z,0.70
2022-12-29T01:18:36.401Z,0.70
2022-12-29T01:21:05.524Z,0.73
2022-12-29T01:23:33.671Z,0.50
2022-12-29T01:26:12.130Z,0.90
2022-12-29T01:28:41.170Z,0.60
2022-12-29T01:31:09.477Z,0.70
2022-12-29T01:33:37.547Z,0.60
2022-12-29T01:36:06.058Z,0.60
2022-12-29T01:38:34.122Z,0.60
2022-12-29T01:41:02.208Z,0.60
2022-12-29T01:43:42.161Z,0.50
2022-12-29T01:46:14.313Z,0.67
2022-12-29T01:48:42.434Z,0.40
2022-12-29T01:51:10.499Z,0.50
2022-12-29T01:53:38.547Z,0.50
2022-12-29T01:56:08.590Z,0.60
2022-12-29T01:58:38.139Z,0.70
2022-12-29T02:01:07.687Z,0.63
2022-12-29T02:03:37.960Z,0.57
2022-12-29T02:06:09.522Z,0.50
2022-12-29T02:08:37.531Z,0.60
2022-12-29T02:11:05.759Z,0.60
2022-12-29T02:13:33.835Z,0.50
2022-12-29T02:16:06.153Z,0.53
2022-12-29T02:18:39.723Z,0.60
2022-12-29T02:21:22.492Z,0.53
2022-12-29T02:24:29.066Z,0.50
2022-12-29T02:27:06.329Z,0.40
2022-12-29T02:30:05.681Z,0.53
2022-12-29T02:32:39.420Z,0.63
2022-12-29T02:35:10.728Z,0.50
2022-12-29T02:37:44.164Z,0.60
2022-12-29T02:40:19.856Z,0.47
2022-12-29T02:42:49.620Z,0.50
2022-12-29T02:45:22.003Z,0.50
2022-12-29T02:47:53.288Z,0.37
2022-12-29T02:50:23.191Z,0.40
2022-12-29T02:52:52.676Z,0.50
2022-12-29T02:55:19.884Z,0.50
2022-12-29T02:57:47.947Z,0.50
2022-12-29T03:00:17.364Z,0.53
2022-12-29T03:03:14.908Z,0.50
2022-12-29T03:05:59.927Z,0.43
2022-12-29T03:08:31.217Z,0.60
2022-12-29T03:11:02.898Z,0.60
2022-12-29T03:13:51.965Z,0.50
2022-12-29T03:16:23.309Z,0.50
2022-12-29T03:18:57.339Z,0.40
2022-12-29T03:21:49.602Z,0.60
2022-12-29T03:24:17.658Z,0.50
2022-12-29T03:26:46.918Z,0.40
2022-12-29T03:29:15.061Z,0.67
2022-12-29T03:31:43.056Z,0.40
2022-12-29T03:34:12.460Z,0.40
2022-12-29T03:36:44.600Z,0.50
2022-12-29T03:39:13.801Z,0.40
2022-12-29T03:41:43.461Z,0.60
2022-12-29T03:44:11.574Z,0.40
2022-12-29T03:46:39.682Z,0.60
2022-12-29T03:49:07.814Z,0.47
2022-12-29T03:51:37.216Z,0.60
2022-12-29T03:54:05.270Z,0.50
2022-12-29T03:56:33.275Z,0.50
2022-12-29T03:59:01.948Z,0.50
2022-12-29T04:01:30.045Z,0.50
2022-12-29T04:03:58.121Z,0.40
2022-12-29T04:06:26.153Z,0.40
2022-12-29T04:08:55.566Z,0.60
2022-12-29T04:11:27.095Z,0.40
2022-12-29T04:13:57.790Z,0.40
2022-12-29T04:16:25.909Z,0.60
2022-12-29T04:18:55.887Z,0.70
2022-12-29T04:21:23.905Z,0.50
2022-12-29T04:23:51.933Z,0.50
2022-12-29T04:26:21.293Z,0.50
2022-12-29T04:28:49.325Z,0.40
2022-12-29T04:31:17.421Z,0.60
2022-12-29T04:33:46.802Z,0.40
2022-12-29T04:36:14.826Z,0.40
2022-12-29T04:38:42.883Z,0.40
2022-12-29T04:41:10.860Z,0.50
2022-12-29T04:43:40.265Z,0.50
2022-12-29T04:46:08.300Z,0.50
2022-12-29T04:48:36.377Z,0.60
2022-12-29T04:51:04.363Z,0.40
2022-12-29T04:53:32.396Z,0.40
2022-12-29T04:56:00.416Z,0.50
2022-12-29T04:58:28.449Z,0.50
2022-12-29T05:01:03.471Z,0.50
2022-12-29T05:03:31.561Z,0.60
2022-12-29T05:05:59.692Z,0.80
2022-12-29T05:08:28.567Z,0.60
2022-12-29T05:10:56.625Z,0.57
2022-12-29T05:13:24.661Z,0.60
2022-12-29T05:15:53.112Z,0.90
2022-12-29T05:18:22.595Z,0.63
2022-12-29T05:20:50.633Z,0.50
2022-12-29T05:23:19.956Z,0.40
2022-12-29T05:25:47.974Z,0.60
2022-12-29T05:28:15.997Z,0.50
2022-12-29T05:30:44.135Z,0.43
2022-12-29T05:33:13.177Z,0.57
2022-12-29T05:35:42.580Z,0.57
2022-12-29T05:38:10.590Z,0.60
2022-12-29T05:40:38.611Z,0.40
2022-12-29T05:43:06.618Z,0.50
2022-12-29T05:45:35.711Z,0.50
2022-12-29T05:48:03.742Z,0.40
2022-12-29T05:50:31.822Z,0.40
2022-12-29T05:53:01.211Z,0.50
2022-12-29T05:55:29.254Z,0.40
2022-12-29T05:57:57.271Z,0.60
2022-12-29T06:00:25.322Z,0.50
2022-12-29T06:02:53.539Z,0.47
2022-12-29T06:05:21.721Z,0.60
2022-12-29T06:07:49.718Z,0.50
2022-12-29T06:10:19.354Z,0.47
2022-12-29T06:12:47.952Z,0.40
2022-12-29T06:15:16.111Z,0.50
2022-12-29T06:17:45.201Z,0.47
2022-12-29T06:20:13.362Z,0.40
2022-12-29T06:22:41.412Z,0.70
2022-12-29T06:25:10.393Z,0.40
2022-12-29T06:27:40.415Z,0.50
2022-12-29T06:30:10.017Z,0.60
2022-12-29T06:32:38.183Z,0.50
2022-12-29T06:35:07.021Z,0.50
2022-12-29T06:37:35.038Z,0.47
2022-12-29T06:40:03.093Z,0.40
2022-12-29T06:42:31.160Z,0.60
2022-12-29T06:45:01.730Z,0.60
2022-12-29T06:47:29.811Z,1.00
2022-12-29T06:49:57.801Z,0.53
2022-12-29T06:52:25.901Z,0.70
2022-12-29T06:54:53.888Z,0.60
2022-12-29T06:57:22.363Z,0.60
2022-12-29T06:59:50.424Z,0.50
2022-12-29T07:02:20.743Z,0.40
2022-12-29T07:04:48.945Z,0.70
2022-12-29T07:07:17.077Z,0.47
2022-12-29T07:09:45.451Z,0.77
2022-12-29T07:12:13.443Z,0.50
2022-12-29T07:14:43.492Z,0.70
2022-12-29T07:17:11.874Z,0.50
2022-12-29T07:19:41.338Z,0.60
2022-12-29T07:22:09.326Z,0.63
2022-12-29T07:24:37.345Z,0.60
2022-12-29T07:27:05.908Z,0.70
2022-12-29T07:29:34.427Z,0.50
2022-12-29T07:32:02.543Z,0.60
2022-12-29T07:34:32.053Z,0.40
2022-12-29T07:37:01.431Z,0.60
2022-12-29T07:39:29.427Z,0.47
2022-12-29T07:42:04.287Z,0.60
2022-12-29T07:44:33.006Z,0.60
2022-12-29T07:47:01.455Z,0.43
2022-12-29T07:49:30.415Z,0.70
2022-12-29T07:52:03.708Z,0.50
2022-12-29T07:54:32.071Z,0.80
2022-12-29T07:57:01.169Z,0.70
2022-12-29T07:59:29.490Z,0.50
2022-12-29T08:01:57.619Z,0.60
2022-12-29T08:04:25.792Z,0.77
2022-12-29T08:06:53.799Z,0.60
2022-12-29T08:09:24.430Z,0.73
2022-12-29T08:11:52.770Z,0.83
2022-12-29T08:14:20.808Z,0.50
2022-12-29T08:16:48.868Z,0.50
2022-12-29T08:19:16.915Z,0.70
2022-12-29T08:21:45.008Z,0.70
2022-12-29T08:24:14.086Z,0.60
2022-12-29T08:26:43.549Z,0.70
2022-12-29T08:29:11.605Z,0.67
2022-12-29T08:31:39.756Z,0.67
2022-12-29T08:34:07.846Z,0.50
2022-12-29T08:36:35.892Z,0.63
2022-12-29T08:39:03.888Z,0.60
2022-12-29T08:41:31.929Z,0.53
2022-12-29T08:44:01.316Z,0.60
2022-12-29T08:46:32.196Z,0.43
2022-12-29T08:49:00.269Z,0.50
2022-12-29T08:51:28.327Z,0.60
2022-12-29T08:53:56.327Z,0.63
2022-12-29T08:56:24.759Z,0.60
2022-12-29T08:58:56.106Z,0.70
2022-12-29T09:01:25.605Z,0.90
2022-12-29T09:06:41.689Z,0.80
2022-12-29T09:09:09.795Z,0.60
2022-12-29T09:11:37.874Z,0.90
2022-12-29T09:14:05.928Z,0.40
2022-12-29T09:16:35.513Z,0.50
2022-12-29T09:19:03.810Z,0.70
2022-12-29T09:21:31.858Z,0.70
2022-12-29T09:23:59.869Z,1.20
2022-12-29T09:26:27.955Z,0.70
2022-12-29T09:28:55.985Z,0.70
2022-12-29T09:31:26.492Z,0.70
2022-12-29T09:33:55.936Z,0.60
2022-12-29T09:36:26.204Z,0.70
2022-12-29T09:38:55.397Z,0.63
2022-12-29T09:41:27.469Z,0.83
2022-12-29T09:44:08.565Z,0.73
2022-12-29T09:46:37.659Z,0.93
2022-12-29T09:49:14.373Z,0.77
2022-12-29T09:51:42.374Z,0.90
2022-12-29T09:54:39.372Z,0.80
2022-12-29T09:57:07.635Z,0.90
2022-12-29T09:59:41.076Z,0.70
2022-12-29T10:02:17.380Z,0.70
2022-12-29T10:04:46.866Z,0.80
2022-12-29T10:07:34.196Z,0.97
2022-12-29T10:10:07.282Z,1.43
2022-12-29T10:12:53.829Z,0.70
2022-12-29T10:15:36.157Z,0.87
2022-12-29T10:18:08.851Z,0.80
2022-12-29T10:20:40.529Z,0.50
2022-12-29T10:23:23.154Z,0.67
2022-12-29T10:25:51.204Z,0.87
2022-12-29T10:28:21.929Z,0.50
2022-12-29T10:30:50.239Z,0.90
2022-12-29T10:33:19.816Z,0.90
2022-12-29T10:35:49.410Z,1.00
2022-12-29T10:38:21.585Z,0.87
2022-12-29T10:40:51.428Z,1.00
2022-12-29T10:43:26.596Z,0.63
2022-12-29T10:45:54.950Z,1.00
2022-12-29T10:48:28.540Z,0.90
2022-12-29T10:51:02.616Z,0.70
2022-12-29T10:53:35.497Z,0.77
2022-12-29T10:56:03.864Z,0.80
2022-12-29T10:58:33.189Z,0.80
2022-12-29T11:01:01.692Z,0.80
2022-12-29T11:03:50.689Z,0.93
2022-12-29T11:06:23.564Z,1.17
2022-12-29T11:08:55.238Z,1.10
2022-12-29T11:11:28.167Z,1.03
2022-12-29T11:14:00.539Z,0.60
2022-12-29T11:16:32.925Z,1.20
2022-12-29T11:19:01.116Z,0.60
2022-12-29T11:21:34.821Z,0.70
2022-12-29T11:24:03.341Z,0.80
2022-12-29T11:26:34.468Z,0.97
2022-12-29T11:29:24.615Z,0.90
2022-12-29T11:31:58.482Z,1.10
2022-12-29T11:34:27.791Z,1.00
2022-12-29T11:37:01.230Z,0.50
2022-12-29T11:39:39.007Z,0.73
2022-12-29T11:42:10.531Z,0.90
2022-12-29T11:44:39.847Z,0.80
2022-12-29T11:47:07.879Z,0.90
2022-12-29T11:49:35.980Z,1.00
2022-12-29T11:52:05.635Z,0.90
2022-12-29T11:54:34.515Z,0.80
2022-12-29T11:57:11.869Z,0.80
2022-12-29T11:59:44.689Z,0.70
2022-12-29T12:02:43.682Z,0.93
2022-12-29T12:05:32.039Z,1.00
2022-12-29T12:08:05.240Z,0.67
2022-12-29T12:10:35.022Z,0.80
2022-12-29T12:13:06.831Z,1.00
2022-12-29T12:15:45.390Z,0.97
2022-12-29T12:18:18.671Z,0.80
2022-12-29T12:20:48.107Z,0.90
2022-12-29T12:23:23.284Z,1.23
2022-12-29T12:25:56.792Z,0.83
2022-12-29T12:28:34.760Z,1.07
2022-12-29T12:31:05.804Z,0.73
2022-12-29T12:33:34.740Z,0.80
2022-12-29T12:36:16.502Z,1.00
2022-12-29T12:38:49.213Z,0.70
2022-12-29T12:41:21.823Z,0.80
2022-12-29T12:43:52.082Z,1.43
2022-12-29T12:46:49.697Z,0.77
2022-12-29T12:49:55.664Z,0.90
2022-12-29T12:52:28.478Z,1.03
2022-12-29T12:55:07.551Z,0.80
2022-12-29T12:57:42.748Z,0.97
2022-12-29T13:00:12.006Z,1.27
2022-12-29T13:02:46.266Z,0.90
2022-12-29T13:05:35.178Z,1.40
2022-12-29T13:08:21.535Z,2.27
2022-12-29T13:10:53.674Z,1.13
2022-12-29T13:13:49.866Z,0.70
2022-12-29T13:16:22.116Z,0.90
2022-12-29T13:18:53.349Z,1.10
2022-12-29T13:21:29.577Z,1.03
2022-12-29T13:23:58.777Z,1.07
2022-12-29T13:26:29.876Z,1.07
2022-12-29T13:29:01.026Z,1.40
2022-12-29T13:31:32.512Z,1.57
2022-12-29T13:34:02.935Z,1.20
2022-12-29T13:36:33.910Z,0.90
2022-12-29T13:39:05.087Z,1.27
2022-12-29T13:41:35.761Z,1.20
2022-12-29T13:44:04.293Z,1.00
2022-12-29T13:46:35.695Z,1.00
2022-12-29T13:49:05.955Z,0.80
2022-12-29T13:51:33.988Z,0.90
2022-12-29T13:54:13.074Z,0.73
2022-12-29T13:56:43.946Z,1.03
2022-12-29T13:59:18.230Z,1.23
2022-12-29T14:01:50.145Z,1.10
2022-12-29T14:04:24.637Z,1.10
2022-12-29T14:07:02.016Z,0.80
2022-12-29T14:09:43.822Z,1.07
2022-12-29T14:12:32.341Z,0.80
2022-12-29T14:15:22.227Z,0.80
2022-12-29T14:18:04.566Z,0.90
2022-12-29T14:20:32.621Z,1.23
2022-12-29T14:23:01.575Z,1.00
2022-12-29T14:26:00.696Z,0.70
2022-12-29T14:28:34.363Z,0.70
2022-12-29T14:31:03.234Z,1.17
2022-12-29T14:33:32.171Z,1.00
2022-12-29T14:36:20.177Z,1.03
2022-12-29T14:38:48.418Z,0.80
2022-12-29T14:41:34.215Z,1.07
2022-12-29T14:44:13.382Z,1.03
2022-12-29T14:46:48.685Z,1.00
2022-12-29T14:49:19.258Z,1.30
2022-12-29T14:51:47.306Z,1.00
2022-12-29T14:54:43.049Z,0.87
2022-12-29T14:57:15.908Z,0.80
2022-12-29T14:59:45.297Z,1.93
2022-12-29T15:02:17.213Z,0.57
2022-12-29T15:04:45.252Z,0.90
2022-12-29T15:07:13.310Z,1.10
2022-12-29T15:09:43.840Z,1.07
2022-12-29T15:12:16.808Z,0.90
2022-12-29T15:14:53.892Z,1.13
2022-12-29T15:17:26.913Z,0.90
2022-12-29T15:19:55.015Z,0.87
2022-12-29T15:22:23.126Z,1.13
2022-12-29T15:24:52.254Z,1.00
2022-12-29T15:27:22.048Z,0.93
2022-12-29T15:29:50.154Z,1.47
2022-12-29T15:32:23.626Z,1.00
2022-12-29T15:34:52.739Z,1.10
2022-12-29T15:37:22.245Z,1.13
2022-12-29T15:39:50.468Z,0.67
2022-12-29T15:42:29.283Z,1.00
2022-12-29T15:45:09.429Z,1.13
2022-12-29T15:47:39.850Z,0.87
2022-12-29T15:50:10.766Z,1.00
2022-12-29T15:52:38.894Z,0.70
2022-12-29T15:55:07.434Z,0.97
2022-12-29T15:57:39.272Z,0.80
2022-12-29T16:00:25.618Z,0.87
2022-12-29T16:02:55.545Z,0.60
2022-12-29T16:05:23.842Z,0.73
2022-12-29T16:07:56.152Z,1.00
2022-12-29T16:10:38.903Z,0.90
2022-12-29T16:13:12.866Z,0.87
2022-12-29T16:15:40.908Z,0.90
2022-12-29T16:18:18.277Z,1.03
2022-12-29T16:20:46.324Z,1.30
2022-12-29T16:23:19.652Z,0.80
2022-12-29T16:25:49.080Z,0.90
2022-12-29T16:28:19.764Z,1.00
2022-12-29T16:30:47.891Z,1.10
2022-12-29T16:33:38.872Z,0.90
2022-12-29T16:36:34.002Z,0.80
2022-12-29T16:39:27.380Z,1.73
2022-12-29T16:41:55.905Z,0.90
2022-12-29T16:44:25.047Z,0.83
2022-12-29T16:47:05.059Z,0.80
2022-12-29T16:49:34.947Z,1.17
2022-12-29T16:52:03.022Z,0.80
2022-12-29T16:54:34.669Z,1.33
2022-12-29T16:57:02.774Z,1.40
2022-12-29T16:59:34.369Z,0.73
2022-12-29T17:02:07.314Z,1.13
2022-12-29T17:04:36.895Z,1.07
2022-12-29T17:07:04.909Z,0.83
2022-12-29T17:09:32.932Z,1.00
2022-12-29T17:12:10.831Z,1.00
2022-12-29T17:14:42.446Z,1.77
2022-12-29T17:17:19.125Z,0.80
2022-12-29T17:19:50.096Z,0.93
2022-12-29T17:22:19.753Z,0.80
2022-12-29T17:24:47.759Z,1.23
2022-12-29T17:27:25.860Z,1.27
2022-12-29T17:29:54.253Z,1.57
2022-12-29T17:32:22.343Z,1.13
2022-12-29T17:34:51.711Z,1.37
2022-12-29T17:37:37.108Z,1.27
2022-12-29T17:40:06.623Z,1.23
2022-12-29T17:42:34.900Z,1.20
2022-12-29T17:45:02.922Z,0.70
2022-12-29T17:47:30.943Z,1.00
2022-12-29T17:50:01.035Z,1.17
2022-12-29T17:52:29.523Z,0.90
2022-12-29T17:55:02.716Z,0.90
2022-12-29T17:57:30.741Z,1.30
2022-12-29T17:59:58.731Z,1.30
2022-12-29T18:02:29.329Z,0.73
2022-12-29T18:04:57.768Z,0.70
2022-12-29T18:07:33.833Z,0.83
2022-12-29T18:10:03.693Z,0.83
2022-12-29T18:12:34.812Z,1.07
2022-12-29T18:15:02.830Z,1.47
2022-12-29T18:17:30.835Z,1.00
2022-12-29T18:20:02.586Z,0.83
2022-12-29T18:22:32.319Z,0.80
2022-12-29T18:25:02.047Z,1.17
2022-12-29T18:27:30.245Z,1.03
2022-12-29T18:29:58.260Z,0.90
2022-12-29T18:32:26.297Z,0.90
2022-12-29T18:34:54.299Z,1.20
2022-12-29T18:37:22.358Z,0.90
2022-12-29T18:39:52.147Z,0.80
2022-12-29T18:42:20.169Z,0.73
2022-12-29T18:44:48.229Z,1.07
2022-12-29T18:47:16.367Z,0.90
2022-12-29T18:49:44.515Z,1.00
2022-12-29T18:52:14.038Z,0.90
2022-12-29T18:54:42.048Z,0.87
2022-12-29T18:57:11.416Z,0.63
2022-12-29T18:59:39.476Z,0.80
2022-12-29T19:02:08.032Z,0.77
2022-12-29T19:04:36.241Z,0.80
2022-12-29T19:07:04.289Z,1.00
2022-12-29T19:09:32.330Z,0.90
2022-12-29T19:12:00.390Z,1.00
2022-12-29T19:14:29.763Z,1.10
2022-12-29T19:16:57.930Z,0.90
2022-12-29T19:19:25.954Z,0.93
2022-12-29T19:21:58.040Z,1.10
2022-12-29T19:24:26.107Z,0.83
2022-12-29T19:26:54.130Z,1.30
2022-12-29T19:29:22.175Z,0.80
2022-12-29T19:31:51.617Z,0.63
2022-12-29T19:34:19.694Z,0.90
2022-12-29T19:36:47.743Z,1.10
2022-12-29T19:39:15.925Z,1.17
2022-12-29T19:41:44.022Z,1.17
2022-12-29T19:44:12.097Z,0.80
2022-12-29T19:46:44.742Z,0.90
2022-12-29T19:49:14.144Z,1.03
2022-12-29T19:51:42.201Z,1.20
2022-12-29T19:54:10.218Z,1.00
2022-12-29T19:56:38.288Z,1.00
2022-12-29T19:59:08.696Z,0.90
2022-12-29T20:01:37.166Z,1.83
2022-12-29T20:04:08.694Z,1.00
2022-12-29T20:06:38.043Z,1.10
2022-12-29T20:09:06.371Z,1.23
2022-12-29T20:11:34.862Z,1.10
2022-12-29T20:14:02.919Z,1.33
2022-12-29T20:16:30.987Z,1.33
2022-12-29T20:18:59.053Z,1.30
2022-12-29T20:21:27.069Z,1.50
2022-12-29T20:23:56.764Z,1.50
2022-12-29T20:26:25.786Z,1.10
2022-12-29T20:28:53.932Z,1.20
2022-12-29T20:31:23.468Z,1.93
2022-12-29T20:33:51.544Z,1.47
2022-12-29T20:36:20.323Z,1.37
2022-12-29T20:38:49.380Z,1.40
2022-12-29T20:41:18.833Z,1.40
2022-12-29T20:43:46.864Z,1.27
2022-12-29T20:46:20.525Z,1.53
2022-12-29T20:48:49.446Z,1.63
2022-12-29T20:51:17.470Z,1.43
2022-12-29T20:53:45.525Z,1.80
2022-12-29T20:56:15.169Z,1.37
2022-12-29T20:59:08.500Z,1.70
2022-12-29T21:01:32.763Z,1.50
2022-12-29T21:04:00.866Z,1.20
2022-12-29T21:06:32.843Z,1.33
2022-12-29T21:09:01.034Z,1.27
2022-12-29T21:11:29.122Z,1.37
2022-12-29T21:14:01.220Z,1.40
2022-12-29T21:16:29.753Z,1.47
2022-12-29T21:18:57.892Z,1.07
2022-12-29T21:21:26.628Z,1.40
2022-12-29T21:23:54.985Z,1.90
2022-12-29T21:26:26.768Z,1.90
2022-12-29T21:28:58.103Z,1.30
2022-12-29T21:31:27.593Z,1.63
2022-12-29T21:33:55.930Z,1.53
2022-12-29T21:36:23.980Z,2.00
2022-12-29T21:38:52.081Z,1.50
2022-12-29T21:41:20.624Z,2.23
2022-12-29T21:44:09.767Z,1.70
2022-12-29T21:46:39.251Z,1.50
2022-12-29T21:49:07.470Z,1.80
2022-12-29T21:51:54.854Z,1.47
2022-12-29T21:54:41.716Z,1.67
2022-12-29T21:57:10.125Z,3.00
2022-12-29T21:59:55.754Z,1.80
2022-12-29T22:02:43.359Z,1.60
2022-12-29T22:05:29.642Z,1.43
2022-12-29T22:08:15.318Z,1.60
2022-12-29T22:11:01.479Z,1.50
2022-12-29T22:13:31.493Z,1.30
2022-12-29T22:15:59.601Z,1.20
2022-12-29T22:18:29.096Z,1.37
2022-12-29T22:20:57.106Z,1.47
2022-12-29T22:23:27.141Z,1.77
2022-12-29T22:25:55.141Z,1.70
2022-12-29T22:28:26.788Z,1.50
2022-12-29T22:30:55.218Z,1.70
2022-12-29T22:33:23.271Z,1.60
2022-12-29T22:35:52.641Z,1.53
2022-12-29T22:38:21.598Z,1.33
2022-12-29T22:40:49.649Z,1.83
2022-12-29T22:43:17.650Z,1.63
2022-12-29T22:45:45.690Z,1.60
2022-12-29T22:48:14.375Z,1.70
2022-12-29T22:50:42.432Z,2.40
2022-12-29T22:53:11.809Z,1.70
2022-12-29T22:55:39.851Z,1.73
2022-12-29T22:58:07.868Z,1.60
2022-12-29T23:00:35.881Z,1.27
2022-12-29T23:03:14.984Z,1.90
2022-12-29T23:05:43.150Z,1.33
2022-12-29T23:08:12.531Z,1.57
2022-12-29T23:10:40.542Z,1.70
2022-12-29T23:13:08.539Z,1.73
2022-12-29T23:15:36.578Z,1.90
2022-12-29T23:18:04.759Z,1.57
2022-12-29T23:20:32.777Z,1.57
2022-12-29T23:23:00.801Z,1.83
2022-12-29T23:25:30.226Z,1.30
2022-12-29T23:28:09.230Z,2.00
2022-12-29T23:30:37.270Z,2.07
2022-12-29T23:33:05.385Z,1.60
2022-12-29T23:35:33.381Z,1.83
2022-12-29T23:38:01.417Z,1.80
2022-12-29T23:40:30.818Z,1.70
2022-12-29T23:42:58.809Z,1.53
2022-12-29T23:45:26.834Z,1.73
2022-12-29T23:47:54.855Z,1.20
2022-12-29T23:50:26.846Z,1.53
2022-12-29T23:52:54.858Z,1.80
2022-12-29T23:55:22.888Z,1.70
2022-12-29T23:57:52.246Z,1.40
